< < Back
Terminal Aerodrome Forecast


Current Version              Previous Versions:   1  2  3  4  5  6  7  8  9  

Terminal Aerodrome Forecast

629
FTUS42 KGSP 171700
TAFAVL
TAF
KAVL 171735Z 1718/1818 14005KT P6SM BKN025
     FM180400 35003KT 3SM BR BKN015
     FM180800 34004KT 2SM BR BKN008
     FM181000 34003KT 1SM BR BKN004
     FM181400 35005KT 6SM BR BKN020
     FM181600 36004KT P6SM BKN035=

Latest METAR

130
SAUS70 KWBC 180100 RRL
MTRAVL
METAR KAVL 180054Z 00000KT 10SM OVC021 19/16 A3001 RMK AO2 RAE2355
SLP142 P0000 T01890161


USA.gov is the U.S. government's official web portal to all federal, state and local government web resources and services.